createdAt,value
2018-02-02T00:00:41.481Z,16.90
2018-02-02T00:03:08.931Z,8.03
2018-02-02T00:05:36.411Z,12.73
2018-02-02T00:08:04.716Z,12.20
2018-02-02T00:10:32.181Z,10.60
2018-02-02T00:12:59.763Z,8.77
2018-02-02T00:15:27.242Z,14.13
2018-02-02T00:17:54.713Z,17.87
2018-02-02T00:20:22.169Z,19.83
2018-02-02T00:22:49.649Z,17.87
2018-02-02T00:25:17.891Z,13.37
2018-02-02T00:27:45.375Z,16.43
2018-02-02T00:30:13.697Z,16.10
2018-02-02T00:32:41.165Z,11.90
2018-02-02T00:35:08.629Z,12.03
2018-02-02T00:37:36.107Z,11.73
2018-02-02T00:40:03.569Z,17.70
2018-02-02T00:42:31.030Z,9.17
2018-02-02T00:44:58.481Z,17.27
2018-02-02T00:47:25.958Z,16.50
2018-02-02T00:49:54.179Z,11.93
2018-02-02T00:52:21.662Z,17.23
2018-02-02T00:54:49.137Z,10.53
2018-02-02T00:57:16.619Z,14.17
2018-02-02T00:59:44.844Z,15.67
2018-02-02T01:02:12.309Z,10.40
2018-02-02T01:04:39.787Z,14.10
2018-02-02T01:07:07.247Z,14.03
2018-02-02T01:09:34.718Z,21.13
2018-02-02T01:12:02.196Z,18.23
2018-02-02T01:14:29.654Z,14.83
2018-02-02T01:16:57.119Z,18.40
2018-02-02T01:19:24.578Z,19.87
2018-02-02T01:21:52.041Z,10.80
2018-02-02T01:24:19.513Z,15.20
2018-02-02T01:26:46.985Z,22.07
2018-02-02T01:29:14.461Z,15.70
2018-02-02T01:31:42.002Z,18.90
2018-02-02T01:34:09.477Z,15.50
2018-02-02T01:36:36.966Z,21.23
2018-02-02T01:39:05.223Z,13.80
2018-02-02T01:41:32.709Z,11.43
2018-02-02T01:44:00.925Z,16.73
2018-02-02T01:46:28.417Z,18.43
2018-02-02T01:48:55.877Z,10.10
2018-02-02T01:51:23.340Z,17.67
2018-02-02T01:53:51.226Z,15.20
2018-02-02T01:56:19.473Z,16.87
2018-02-02T01:58:46.929Z,16.27
2018-02-02T02:01:14.405Z,16.10
2018-02-02T02:03:41.875Z,15.60
2018-02-02T02:06:10.147Z,22.10
2018-02-02T02:08:38.457Z,16.93
2018-02-02T02:11:05.946Z,15.07
2018-02-02T02:13:33.432Z,12.97
2018-02-02T02:16:01.023Z,20.63
2018-02-02T02:18:28.566Z,18.97
2018-02-02T02:20:56.030Z,18.10
2018-02-02T02:23:24.293Z,27.77
2018-02-02T02:25:51.794Z,17.30
2018-02-02T02:28:19.291Z,21.63
2018-02-02T02:30:46.808Z,16.90
2018-02-02T02:33:14.297Z,17.23
2018-02-02T02:35:41.813Z,16.13
2018-02-02T02:38:09.466Z,18.10
2018-02-02T02:40:36.950Z,17.70
2018-02-02T02:43:04.446Z,19.50
2018-02-02T02:45:31.939Z,19.13
2018-02-02T02:48:00.204Z,21.00
2018-02-02T02:50:28.466Z,18.30
2018-02-02T02:52:55.967Z,17.13
2018-02-02T02:55:23.450Z,15.43
2018-02-02T02:57:50.948Z,18.73
2018-02-02T03:00:18.724Z,15.97
2018-02-02T03:02:47.003Z,27.67
2018-02-02T03:05:15.276Z,18.93
2018-02-02T03:07:43.552Z,23.87
2018-02-02T03:10:11.841Z,21.30
2018-02-02T03:12:40.124Z,23.73
2018-02-02T03:15:08.407Z,21.17
2018-02-02T03:17:36.661Z,20.53
2018-02-02T03:20:04.151Z,20.90
2018-02-02T03:22:31.654Z,18.03
2018-02-02T03:24:59.152Z,26.43
2018-02-02T03:27:26.645Z,20.70
2018-02-02T03:29:54.162Z,22.00
2018-02-02T03:32:22.414Z,25.90
2018-02-02T03:34:49.894Z,19.50
2018-02-02T03:37:18.175Z,21.97
2018-02-02T03:39:46.431Z,20.80
2018-02-02T03:42:13.942Z,14.57
2018-02-02T03:44:41.425Z,21.83
2018-02-02T03:47:08.914Z,20.10
2018-02-02T03:49:36.404Z,18.93
2018-02-02T03:52:03.904Z,18.93
2018-02-02T03:54:31.416Z,14.13
2018-02-02T03:56:58.941Z,16.83
2018-02-02T03:59:26.447Z,18.37
2018-02-02T04:01:53.953Z,13.27
2018-02-02T04:04:21.451Z,13.57
2018-02-02T04:06:49.799Z,16.90
2018-02-02T04:09:17.322Z,12.80
2018-02-02T04:11:44.795Z,13.37
2018-02-02T04:14:12.319Z,12.07
2018-02-02T04:16:39.809Z,12.83
2018-02-02T04:19:07.305Z,13.37
2018-02-02T04:21:34.832Z,18.17
2018-02-02T04:24:02.325Z,13.27
2018-02-02T04:26:29.797Z,16.30
2018-02-02T04:28:58.367Z,16.77
2018-02-02T04:31:25.852Z,15.63
2018-02-02T04:33:54.131Z,26.47
2018-02-02T04:36:22.397Z,23.53
2018-02-02T04:38:50.650Z,26.03
2018-02-02T04:41:18.174Z,26.83
2018-02-02T04:43:45.668Z,26.10
2018-02-02T04:46:13.790Z,33.70
2018-02-02T04:48:41.254Z,30.67
2018-02-02T04:51:08.905Z,28.00
2018-02-02T04:53:36.377Z,32.67
2018-02-02T04:56:03.845Z,30.70
2018-02-02T04:58:31.315Z,37.13
2018-02-02T05:00:58.782Z,32.87
2018-02-02T05:03:26.275Z,39.30
2018-02-02T05:05:54.489Z,46.87
2018-02-02T05:08:21.962Z,31.53
2018-02-02T05:10:49.443Z,40.67
2018-02-02T05:13:16.973Z,37.37
2018-02-02T05:15:44.444Z,43.57
2018-02-02T05:18:11.937Z,36.97
2018-02-02T05:20:39.405Z,32.80
2018-02-02T05:23:07.674Z,33.13
2018-02-02T05:25:35.128Z,39.00
2018-02-02T05:28:02.605Z,57.57
2018-02-02T05:30:30.858Z,38.77
2018-02-02T05:32:58.343Z,37.93
2018-02-02T05:35:26.026Z,34.60
2018-02-02T05:37:53.528Z,43.70
2018-02-02T05:40:21.466Z,32.03
2018-02-02T05:42:48.934Z,46.80
2018-02-02T05:45:16.409Z,33.53
2018-02-02T05:47:43.885Z,36.87
2018-02-02T05:50:11.375Z,38.90
2018-02-02T05:52:38.832Z,37.30
2018-02-02T05:55:06.322Z,40.10
2018-02-02T05:57:33.820Z,38.13
2018-02-02T06:00:01.285Z,33.77
2018-02-02T06:02:29.521Z,44.20
2018-02-02T06:04:56.988Z,37.53
2018-02-02T06:07:24.461Z,48.37
2018-02-02T06:09:51.919Z,46.47
2018-02-02T06:12:19.403Z,44.80
2018-02-02T06:14:47.625Z,40.17
2018-02-02T06:17:15.126Z,33.90
2018-02-02T06:19:43.509Z,35.10
2018-02-02T06:22:11.022Z,42.37
2018-02-02T06:24:38.497Z,38.00
2018-02-02T06:27:06.013Z,38.53
2018-02-02T06:29:33.499Z,39.27
2018-02-02T06:32:00.976Z,36.90
2018-02-02T06:34:28.449Z,38.07
2018-02-02T06:37:04.755Z,40.73
2018-02-02T06:39:32.211Z,42.97
2018-02-02T06:41:59.687Z,37.10
2018-02-02T06:44:27.151Z,29.90
2018-02-02T06:46:54.610Z,39.97
2018-02-02T06:49:22.091Z,40.70
2018-02-02T06:51:49.568Z,42.37
2018-02-02T06:54:17.056Z,46.07
2018-02-02T06:56:45.302Z,41.00
2018-02-02T06:59:12.792Z,49.17
2018-02-02T07:01:41.034Z,43.13
2018-02-02T07:04:08.546Z,54.30
2018-02-02T07:06:36.052Z,41.40
2018-02-02T07:09:03.526Z,46.73
2018-02-02T07:11:31.787Z,44.50
2018-02-02T07:13:59.251Z,40.80
2018-02-02T07:16:26.730Z,46.73
2018-02-02T07:18:54.234Z,45.53
2018-02-02T07:21:21.718Z,61.47
2018-02-02T07:23:49.206Z,47.73
2018-02-02T07:26:17.583Z,51.97
2018-02-02T07:28:45.823Z,46.53
2018-02-02T07:31:13.302Z,42.17
2018-02-02T07:33:40.770Z,51.93
2018-02-02T07:36:09.022Z,58.17
2018-02-02T07:38:36.498Z,46.90
2018-02-02T07:41:03.980Z,38.17
2018-02-02T07:43:32.219Z,45.87
2018-02-02T07:45:59.694Z,53.67
2018-02-02T07:48:27.165Z,37.20
2018-02-02T07:50:55.394Z,34.60
2018-02-02T07:53:22.871Z,39.20
2018-02-02T07:55:50.356Z,46.20
2018-02-02T07:58:18.657Z,33.80
2018-02-02T08:00:51.655Z,37.77
2018-02-02T08:03:19.137Z,30.40
2018-02-02T08:05:47.370Z,47.27
2018-02-02T08:08:14.857Z,34.63
2018-02-02T08:10:42.347Z,29.23
2018-02-02T08:13:09.825Z,28.17
2018-02-02T08:15:38.070Z,30.53
2018-02-02T08:18:05.541Z,40.57
2018-02-02T08:20:33.022Z,29.53
2018-02-02T08:23:01.246Z,30.50
2018-02-02T08:25:28.735Z,33.03
2018-02-02T08:27:56.201Z,28.53
2018-02-02T08:30:23.670Z,27.87
2018-02-02T08:32:51.918Z,26.10
2018-02-02T08:35:19.401Z,23.10
2018-02-02T08:37:46.913Z,24.30
2018-02-02T08:40:14.388Z,22.77
2018-02-02T08:42:41.861Z,23.77
2018-02-02T08:45:09.340Z,19.00
2018-02-02T08:47:36.807Z,23.30
2018-02-02T08:50:05.057Z,18.07
2018-02-02T08:52:32.516Z,20.43
2018-02-02T08:54:59.996Z,17.40
2018-02-02T08:57:28.261Z,18.87
2018-02-02T08:59:55.734Z,22.87
2018-02-02T09:02:23.252Z,22.77
2018-02-02T09:04:50.713Z,16.37
2018-02-02T09:07:18.201Z,18.97
2018-02-02T09:09:45.665Z,22.00
2018-02-02T09:12:13.901Z,19.70
2018-02-02T09:14:42.127Z,14.70
2018-02-02T09:17:10.370Z,20.10
2018-02-02T09:19:37.824Z,14.03
2018-02-02T09:22:05.625Z,13.50
2018-02-02T09:24:33.100Z,22.40
2018-02-02T09:27:00.089Z,15.53
2018-02-02T09:29:28.362Z,18.03
2018-02-02T09:31:55.830Z,20.30
2018-02-02T09:34:23.318Z,19.63
2018-02-02T09:36:51.560Z,34.57
2018-02-02T09:39:19.044Z,29.70
2018-02-02T09:41:47.278Z,22.93
2018-02-02T09:44:14.806Z,24.33
2018-02-02T09:46:43.040Z,27.17
2018-02-02T09:49:10.510Z,29.73
2018-02-02T09:51:38.790Z,34.70
2018-02-02T09:54:06.250Z,28.77
2018-02-02T09:56:34.492Z,39.00
2018-02-02T09:59:01.963Z,41.47
2018-02-02T10:01:29.437Z,38.00
2018-02-02T10:03:56.894Z,37.13
2018-02-02T10:06:24.471Z,44.83
2018-02-02T10:08:54.028Z,32.63
2018-02-02T10:11:21.536Z,50.63
2018-02-02T10:13:49.772Z,41.80
2018-02-02T10:16:17.245Z,31.03
2018-02-02T10:18:44.735Z,40.40
2018-02-02T10:21:13.336Z,34.97
2018-02-02T10:23:40.849Z,39.70
2018-02-02T10:26:08.445Z,37.00
2018-02-02T10:28:36.678Z,37.63
2018-02-02T10:31:04.178Z,39.47
2018-02-02T10:33:32.644Z,35.57
2018-02-02T10:36:00.152Z,37.97
2018-02-02T10:38:27.626Z,45.50
2018-02-02T10:40:55.083Z,37.73
2018-02-02T10:43:22.614Z,32.30
2018-02-02T10:45:50.375Z,42.53
2018-02-02T10:48:17.886Z,31.80
2018-02-02T10:50:45.442Z,23.23
2018-02-02T10:53:12.896Z,29.20
2018-02-02T10:55:40.386Z,35.67
2018-02-02T10:58:11.945Z,24.67
2018-02-02T11:00:45.057Z,28.90
2018-02-02T11:03:18.384Z,33.33
2018-02-02T11:05:46.078Z,26.57
2018-02-02T11:08:13.552Z,24.60
2018-02-02T11:10:41.067Z,21.33
2018-02-02T11:13:08.820Z,19.33
2018-02-02T11:15:36.309Z,24.87
2018-02-02T11:18:03.798Z,21.10
2018-02-02T11:20:31.704Z,14.07
2018-02-02T11:22:59.205Z,18.90
2018-02-02T11:25:26.740Z,20.03
2018-02-02T11:27:54.630Z,13.27
2018-02-02T11:30:23.915Z,15.83
2018-02-02T11:32:51.431Z,11.43
2018-02-02T11:35:19.685Z,15.53
2018-02-02T11:37:48.020Z,9.33
2018-02-02T11:40:15.513Z,15.20
2018-02-02T11:42:43.771Z,9.80
2018-02-02T11:45:11.753Z,11.77
2018-02-02T11:47:39.255Z,12.87
2018-02-02T11:50:06.806Z,13.13
2018-02-02T11:52:35.048Z,10.10
2018-02-02T11:55:03.019Z,7.27
2018-02-02T11:57:30.499Z,9.03
2018-02-02T11:59:58.717Z,7.70
2018-02-02T12:02:26.289Z,5.87
2018-02-02T12:04:53.846Z,5.43
2018-02-02T12:07:22.044Z,4.30
2018-02-02T12:09:49.515Z,4.10
2018-02-02T12:12:16.987Z,8.33
2018-02-02T12:14:45.384Z,5.20
2018-02-02T12:17:13.818Z,5.97
2018-02-02T12:19:42.111Z,7.50
2018-02-02T12:22:15.387Z,4.27
2018-02-02T12:28:04.513Z,6.97
2018-02-02T12:30:51.813Z,4.30
2018-02-02T12:36:22.170Z,4.30
2018-02-02T12:38:50.538Z,6.77
2018-02-02T12:41:18.028Z,5.37
2018-02-02T12:43:46.271Z,5.67
2018-02-02T12:46:14.580Z,6.17
2018-02-02T12:48:42.841Z,4.00
2018-02-02T12:51:15.979Z,4.20
2018-02-02T12:53:43.487Z,4.20
2018-02-02T12:56:12.084Z,4.83
2018-02-02T12:58:39.652Z,4.63
2018-02-02T13:01:08.267Z,6.30
2018-02-02T13:03:35.730Z,8.53
2018-02-02T13:06:03.228Z,8.90
2018-02-02T13:08:30.873Z,2.90
2018-02-02T13:10:58.341Z,5.70
2018-02-02T13:13:25.844Z,3.50
2018-02-02T13:15:53.679Z,7.87
2018-02-02T13:18:21.258Z,3.50
2018-02-02T13:20:49.529Z,2.87
2018-02-02T13:23:17.803Z,7.33
2018-02-02T13:25:46.033Z,7.43
2018-02-02T13:28:13.667Z,6.50
2018-02-02T13:30:42.995Z,11.73
2018-02-02T13:33:10.483Z,20.37
2018-02-02T13:35:37.972Z,5.77
2018-02-02T13:38:06.287Z,7.70
2018-02-02T13:40:33.803Z,6.97
2018-02-02T13:43:02.058Z,5.40
2018-02-02T13:45:29.536Z,6.30
2018-02-02T13:47:57.789Z,8.83
2018-02-02T13:50:25.392Z,8.00
2018-02-02T13:52:53.746Z,5.70
2018-02-02T13:55:21.255Z,5.33
2018-02-02T13:57:49.027Z,6.87
2018-02-02T14:00:17.710Z,11.37
2018-02-02T14:02:45.965Z,12.90
2018-02-02T14:05:13.503Z,8.50
2018-02-02T14:07:41.787Z,7.87
2018-02-02T14:10:10.046Z,10.37
2018-02-02T14:12:37.534Z,7.33
2018-02-02T14:15:05.075Z,15.87
2018-02-02T14:17:33.336Z,9.50
2018-02-02T14:20:00.832Z,10.90
2018-02-02T14:22:28.332Z,10.20
2018-02-02T14:24:55.913Z,7.60
2018-02-02T14:27:24.919Z,5.93
2018-02-02T14:29:52.505Z,8.50
2018-02-02T14:32:21.901Z,6.93
2018-02-02T14:34:50.154Z,8.23
2018-02-02T14:37:17.648Z,10.10
2018-02-02T14:39:45.240Z,9.47
2018-02-02T14:42:12.739Z,10.73
2018-02-02T14:44:41.004Z,13.17
2018-02-02T14:47:08.508Z,13.90
2018-02-02T14:49:36.538Z,15.90
2018-02-02T14:52:04.139Z,14.73
2018-02-02T14:54:31.633Z,12.13
2018-02-02T14:56:59.158Z,14.00
2018-02-02T14:59:26.755Z,15.33
2018-02-02T15:01:55.391Z,8.50
2018-02-02T15:04:23.000Z,13.10
2018-02-02T15:06:50.821Z,10.30
2018-02-02T15:09:18.352Z,14.73
2018-02-02T15:11:46.210Z,13.20
2018-02-02T15:14:13.757Z,10.37
2018-02-02T15:16:41.339Z,11.20
2018-02-02T15:19:08.822Z,12.47
2018-02-02T15:21:37.103Z,11.43
2018-02-02T15:24:05.352Z,10.20
2018-02-02T15:26:32.889Z,10.33
2018-02-02T15:29:00.386Z,12.33
2018-02-02T15:31:27.916Z,8.63
2018-02-02T15:33:55.386Z,15.80
2018-02-02T15:36:22.892Z,9.67
2018-02-02T15:38:50.624Z,12.90
2018-02-02T15:41:19.202Z,11.10
2018-02-02T15:43:47.462Z,15.40
2018-02-02T15:46:14.943Z,12.67
2018-02-02T15:48:43.231Z,21.37
2018-02-02T15:51:13.441Z,27.07
2018-02-02T15:53:41.333Z,16.20
2018-02-02T15:56:08.840Z,21.30
2018-02-02T15:58:36.302Z,9.10
2018-02-02T16:01:03.840Z,17.63
2018-02-02T16:03:31.318Z,15.07
2018-02-02T16:05:58.798Z,10.87
2018-02-02T16:08:26.314Z,15.80
2018-02-02T16:10:53.914Z,16.07
2018-02-02T16:13:21.409Z,22.63
2018-02-02T16:15:48.895Z,20.33
2018-02-02T16:18:16.370Z,16.53
2018-02-02T16:20:43.871Z,17.00
2018-02-02T16:23:12.188Z,20.00
2018-02-02T16:25:39.679Z,17.50
2018-02-02T16:28:07.222Z,19.63
2018-02-02T16:30:35.703Z,24.63
2018-02-02T16:33:03.442Z,25.00
2018-02-02T16:35:31.081Z,23.20
2018-02-02T16:37:59.335Z,18.70
2018-02-02T16:40:26.838Z,16.97
2018-02-02T16:42:54.328Z,18.70
2018-02-02T16:45:22.685Z,20.20
2018-02-02T16:47:51.367Z,24.10
2018-02-02T16:50:18.881Z,20.43
2018-02-02T16:52:47.257Z,21.43
2018-02-02T16:55:14.735Z,22.83
2018-02-02T16:57:42.979Z,28.53
2018-02-02T17:00:10.546Z,26.90
2018-02-02T17:02:38.043Z,36.50
2018-02-02T17:05:05.858Z,35.90
2018-02-02T17:07:33.350Z,36.10
2018-02-02T17:10:03.090Z,35.67
2018-02-02T17:12:31.179Z,34.97
2018-02-02T17:14:58.690Z,42.27
2018-02-02T17:17:26.191Z,45.03
2018-02-02T17:19:53.692Z,36.83
2018-02-02T17:22:22.032Z,39.33
2018-02-02T17:24:49.522Z,39.13
2018-02-02T17:27:17.045Z,36.93
2018-02-02T17:29:44.516Z,40.90
2018-02-02T17:32:12.092Z,40.70
2018-02-02T17:34:39.604Z,42.93
2018-02-02T17:37:07.099Z,45.67
2018-02-02T17:39:34.630Z,44.20
2018-02-02T17:42:02.094Z,43.03
2018-02-02T17:44:29.599Z,52.90
2018-02-02T17:46:57.080Z,55.17
2018-02-02T17:49:25.348Z,54.23
2018-02-02T17:51:52.823Z,51.53
2018-02-02T17:54:21.087Z,47.57
2018-02-02T17:56:48.647Z,48.17
2018-02-02T17:59:16.124Z,44.93
2018-02-02T18:01:46.142Z,49.70
2018-02-02T18:04:14.406Z,61.90
2018-02-02T18:06:42.721Z,59.47
2018-02-02T18:09:10.238Z,62.90
2018-02-02T18:11:37.711Z,59.93
2018-02-02T18:14:05.965Z,61.47
2018-02-02T18:16:33.467Z,71.13
2018-02-02T18:19:01.384Z,66.33
2018-02-02T18:21:28.878Z,69.77
2018-02-02T18:23:56.388Z,63.53
2018-02-02T18:26:23.955Z,54.73
2018-02-02T18:28:51.472Z,64.07
2018-02-02T18:31:18.983Z,60.33
2018-02-02T18:33:46.509Z,52.47
2018-02-02T18:36:14.009Z,60.33
2018-02-02T18:38:41.480Z,57.70
2018-02-02T18:41:09.751Z,59.73
2018-02-02T18:43:37.228Z,56.53
2018-02-02T18:46:04.736Z,58.30
2018-02-02T18:48:32.221Z,54.77
2018-02-02T18:50:59.799Z,68.73
2018-02-02T18:53:27.370Z,69.20
2018-02-02T18:55:55.608Z,86.60
2018-02-02T18:58:23.177Z,63.47
2018-02-02T19:00:50.630Z,69.63
2018-02-02T19:03:18.163Z,69.30
2018-02-02T19:05:45.669Z,97.00
2018-02-02T19:08:13.161Z,82.27
2018-02-02T19:10:40.657Z,88.20
2018-02-02T19:13:08.178Z,80.70
2018-02-02T19:15:35.707Z,75.87
2018-02-02T19:18:04.009Z,67.87
2018-02-02T19:20:31.806Z,76.47
2018-02-02T19:23:00.758Z,73.47
2018-02-02T19:25:30.490Z,65.73
2018-02-02T19:27:58.113Z,70.63
2018-02-02T19:30:26.430Z,80.87
2018-02-02T19:32:54.291Z,89.67
2018-02-02T19:35:23.196Z,77.83
2018-02-02T19:37:52.052Z,74.03
2018-02-02T19:40:20.360Z,80.50
2018-02-02T19:42:48.426Z,74.13
2018-02-02T19:45:16.044Z,74.13
2018-02-02T19:47:43.581Z,64.30
2018-02-02T19:50:11.212Z,71.73
2018-02-02T19:52:40.750Z,79.90
2018-02-02T19:55:10.050Z,74.70
2018-02-02T19:57:40.135Z,74.00
2018-02-02T20:00:07.636Z,66.30
2018-02-02T20:02:35.184Z,66.83
2018-02-02T20:05:03.440Z,69.57
2018-02-02T20:07:30.961Z,73.53
2018-02-02T20:09:58.482Z,68.70
2018-02-02T20:12:26.843Z,63.40
2018-02-02T20:14:54.369Z,73.87
2018-02-02T20:17:22.175Z,68.47
2018-02-02T20:19:51.075Z,78.83
2018-02-02T20:22:18.705Z,67.50
2018-02-02T20:24:46.477Z,66.20
2018-02-02T20:27:14.139Z,62.03
2018-02-02T20:29:42.235Z,67.57
2018-02-02T20:32:10.258Z,71.73
2018-02-02T20:40:32.992Z,66.43
2018-02-02T20:43:01.367Z,74.17
2018-02-02T20:45:30.631Z,78.27
2018-02-02T20:48:00.326Z,75.27
2018-02-02T20:50:40.585Z,74.60
2018-02-02T20:55:49.175Z,68.90
2018-02-02T20:58:18.015Z,80.73
2018-02-02T21:00:49.281Z,66.03
2018-02-02T21:03:17.689Z,70.57
2018-02-02T21:05:45.207Z,77.50
2018-02-02T21:08:13.789Z,71.03
2018-02-02T21:10:43.228Z,81.67
2018-02-02T21:13:11.618Z,77.07
2018-02-02T21:15:39.366Z,78.87
2018-02-02T21:18:07.078Z,75.83
2018-02-02T21:20:35.821Z,68.17
2018-02-02T21:23:07.388Z,79.10
2018-02-02T21:25:37.126Z,69.80
2018-02-02T21:28:06.215Z,77.90
2018-02-02T21:30:37.407Z,67.83
2018-02-02T21:33:06.966Z,79.13
2018-02-02T21:35:38.269Z,69.03
2018-02-02T21:38:07.455Z,102.20
2018-02-02T21:40:37.797Z,77.50
2018-02-02T21:43:08.188Z,69.33
2018-02-02T21:45:35.666Z,70.40
2018-02-02T21:48:04.143Z,71.53
2018-02-02T21:50:31.651Z,77.27
2018-02-02T21:52:59.119Z,74.27
2018-02-02T21:55:26.610Z,71.37
2018-02-02T21:57:54.118Z,79.60
2018-02-02T22:00:21.594Z,86.77
2018-02-02T22:02:49.130Z,69.80
2018-02-02T22:05:16.566Z,73.47
2018-02-02T22:07:44.057Z,78.40
2018-02-02T22:10:11.522Z,86.67
2018-02-02T22:12:39.002Z,82.90
2018-02-02T22:15:07.246Z,88.43
2018-02-02T22:17:34.725Z,92.40
2018-02-02T22:20:03.603Z,88.50
2018-02-02T22:22:31.080Z,83.50
2018-02-02T22:24:59.328Z,79.47
2018-02-02T22:27:26.810Z,83.00
2018-02-02T22:29:54.287Z,92.03
2018-02-02T22:32:22.001Z,87.50
2018-02-02T22:34:50.269Z,88.70
2018-02-02T22:37:17.721Z,90.63
2018-02-02T22:39:45.195Z,92.10
2018-02-02T22:42:12.677Z,90.40
2018-02-02T22:44:40.124Z,84.93
2018-02-02T22:47:07.606Z,90.30
2018-02-02T22:49:35.841Z,101.80
2018-02-02T22:52:03.395Z,99.97
2018-02-02T22:54:30.862Z,111.33
2018-02-02T22:56:58.353Z,87.57
2018-02-02T22:59:26.613Z,84.57
2018-02-02T23:01:54.082Z,86.40
2018-02-02T23:04:21.541Z,87.97
2018-02-02T23:06:49.038Z,87.00
2018-02-02T23:09:16.533Z,92.30
2018-02-02T23:11:43.988Z,78.03
2018-02-02T23:14:11.475Z,76.37
2018-02-02T23:16:38.948Z,60.00
2018-02-02T23:19:07.178Z,71.20
2018-02-02T23:21:34.650Z,65.37
2018-02-02T23:24:02.152Z,72.73
2018-02-02T23:26:29.633Z,72.13
2018-02-02T23:28:57.115Z,64.23
2018-02-02T23:31:24.583Z,71.93
2018-02-02T23:33:52.052Z,55.90
2018-02-02T23:36:19.536Z,62.50
2018-02-02T23:38:47.771Z,54.17
2018-02-02T23:41:15.245Z,54.23
2018-02-02T23:43:42.733Z,53.93
2018-02-02T23:46:11.009Z,52.43
2018-02-02T23:48:39.243Z,52.07
2018-02-02T23:51:06.729Z,55.63
2018-02-02T23:53:34.194Z,56.10
2018-02-02T23:56:02.418Z,49.83
2018-02-02T23:58:29.885Z,55.40
